• Join FlightAware (Why Join?)
  • Login
  • US Flag 
06:39PM EDT


 

Airport Tracker/Info


-or-


 

Live Flight TrackerFlight Track Log ✈ C-GRDF ✈ 12-Jul-2013 ✈ CYSL - CYFC

Flight Track Log - Related Links

Times and Time Zones

All times are in EDT time to prevent confusion due to time zone crossing. See the C-GRDF flight status page for this flight to view local times or setup timezone preferences in your user account.

Time Position Orientation Groundspeed Altitude Reporting Facility
EDT Latitude Longitude Course Direction KTS MPH feet Rate Location/Type
01:35PM 47.0814 -67.7097 136° Southeast 234 269 6,900  Level Boston Center
01:36PM 47.0506 -67.6667 136° Southeast 199 229 8,500 1,380 Climbing Boston Center
01:37PM 47.0069 -67.6186 143° Southeast 183 211 9,700 960 Climbing Boston Center
01:38PM 46.9528 -67.5686 148° Southeast 208 239 10,500 600 Climbing Boston Center
01:39PM 46.8928 -67.5222 152° Southeast 225 259 11,000 240 Climbing Boston Center
01:40PM 46.8342 -67.4669 147° Southeast 239 275 11,000  Level Boston Center
01:41PM 46.7772 -67.4022 142° Southeast 253 291 11,000  Level Boston Center
01:42PM 46.7097 -67.3356 146° Southeast 259 298 11,000  Level Boston Center
01:43PM 46.6333 -67.2667 148° Southeast 260 299 11,000  Level Moncton Center
01:44PM 46.5667 -67.2167 153° Southeast 260 299 11,000  Level Moncton Center
01:45PM 46.5167 -67.1667 145° Southeast 260 299 11,000  Level Moncton Center
01:46PM 46.4500 -67.1000 145° Southeast 260 299 11,000 -300 Level Moncton Center
01:47PM 46.4000 -67.0500 145° Southeast 260 299 10,500 -960 Descending Moncton Center
01:48PM 46.3167 -66.9833 151° Southeast 270 311 9,100 -1,140 Descending Moncton Center
01:49PM 46.2667 -66.9167 137° Southeast 260 299 8,300 -840 Descending Moncton Center
01:50PM 46.2000 -66.8667 153° Southeast 240 276 7,500 -840 Descending Moncton Center
01:51PM 46.1500 -66.8167 145° Southeast 240 276 6,700 -840 Descending Moncton Center
01:52PM 46.1000 -66.7667 145° Southeast 240 276 5,900 -900 Descending Moncton Center
01:53PM 46.0333 -66.7167 152° Southeast 250 288 5,000 -900 Descending Moncton Center
01:54PM 45.9833 -66.6333 131° Southeast 230 265 4,200 -840 Descending Moncton Center
01:55PM 45.9333 -66.5833 145° Southeast 210 242 3,400 -900 Descending Moncton Center
01:56PM 45.9000 -66.5333 134° Southeast 180 207 2,400 -840 Descending Moncton Center
01:57PM 45.8667 -66.4833 134° Southeast 170 196 1,800 -600 Descending Moncton Center